Time;durP1;ratioP1;P1;durP2;ratioP2;P2;SDS_P1;SDS_P2;PMS_P1;PMS_P2;Temp;Humidity;BMP_temperature;BMP_pressure;BME280_temperature;BME280_humidity;BME280_pressure;Samples;Min_cycle;Max_cycle;Signal;HPM_P1;HPM_P2
2023/04/09 00:02:09;;;;;;;;;73.50;55.75;;;;;9.23;80.65;102191.13;5099159;27;45429;-68
2023/04/09 00:04:34;;;;;;;;;74.67;54.00;;;;;9.19;80.84;102189.38;5098622;27;46240;-67
2023/04/09 00:07:00;;;;;;;;;68.67;51.67;;;;;8.99;80.78;102156.81;5098509;27;45368;-67
2023/04/09 00:09:25;;;;;;;;;70.50;53.25;;;;;9.11;81.16;102184.94;5098528;27;45293;-67
2023/04/09 00:11:50;;;;;;;;;69.67;50.67;;;;;9.08;80.41;102183.16;5099109;27;45481;-67
2023/04/09 00:14:16;;;;;;;;;71.00;53.67;;;;;9.06;80.89;102179.63;5098623;27;45468;-67
2023/04/09 00:16:41;;;;;;;;;77.00;55.25;;;;;9.05;81.38;102194.53;5097320;27;45482;-68
2023/04/09 00:19:06;;;;;;;;;70.25;53.00;;;;;9.03;81.42;102185.78;5098678;27;45574;-68
2023/04/09 00:21:32;;;;;;;;;75.50;56.75;;;;;9.01;81.55;102184.88;5098636;27;45609;-67
2023/04/09 00:23:57;;;;;;;;;68.00;54.50;;;;;8.99;81.46;102181.34;5098553;27;45469;-67
2023/04/09 00:26:22;;;;;;;;;74.75;55.25;;;;;8.95;81.53;102184.81;5098558;27;45417;-67
2023/04/09 00:28:48;;;;;;;;;65.75;52.50;;;;;8.85;81.85;102165.47;5098863;27;45217;-67
2023/04/09 00:31:13;;;;;;;;;73.50;56.00;;;;;8.91;82.11;102172.53;5098684;27;45283;-67
2023/04/09 00:33:39;;;;;;;;;67.25;48.00;;;;;8.93;81.79;102175.16;5098423;27;46218;-67
2023/04/09 00:36:04;;;;;;;;;68.00;53.33;;;;;8.92;82.09;102173.41;5098307;27;45346;-67
2023/04/09 00:38:30;;;;;;;;;73.00;51.75;;;;;8.88;82.09;102176.00;5098532;27;45343;-67
2023/04/09 00:40:55;;;;;;;;;70.00;53.00;;;;;8.77;82.23;102164.56;5098516;27;45470;-67
2023/04/09 00:43:21;;;;;;;;;68.75;52.00;;;;;8.75;82.27;102161.03;5098022;27;45327;-67
2023/04/09 00:45:46;;;;;;;;;72.25;53.50;;;;;8.78;82.56;102173.31;5098297;27;45350;-67
2023/04/09 00:48:12;;;;;;;;;69.33;53.67;;;;;8.76;82.43;102175.03;5098657;27;45273;-68
2023/04/09 00:50:38;;;;;;;;;71.25;55.00;;;;;8.75;82.29;102168.91;5098390;27;45317;-68
2023/04/09 00:53:04;;;;;;;;;71.67;53.00;;;;;8.73;82.68;102161.88;5098074;27;45276;-68
2023/04/09 00:55:30;;;;;;;;;69.00;53.00;;;;;8.73;82.64;102170.66;5098050;27;45481;-67
2023/04/09 00:57:55;;;;;;;;;72.67;53.67;;;;;8.67;81.83;102163.63;5098194;27;45252;-69
2023/04/09 01:00:21;;;;;;;;;67.67;51.67;;;;;8.71;81.88;102167.13;5098262;27;45392;-69
2023/04/09 01:02:47;;;;;;;;;71.67;54.00;;;;;8.63;81.59;102160.97;5097973;27;45470;-68
2023/04/09 01:05:14;;;;;;;;;77.00;56.00;;;;;8.52;82.07;102143.38;5097921;27;45486;-68
2023/04/09 01:08:10;;;;;;;;;71.67;53.67;;;;;8.57;82.16;102158.25;5097895;27;45505;-68
2023/04/09 01:10:45;;;;;;;;;76.25;54.25;;;;;8.54;82.54;102148.63;5075592;28;45451;-68
2023/04/09 01:13:13;;;;;;;;;73.25;54.75;;;;;8.55;82.56;102155.63;5075126;28;46640;-67
2023/04/09 01:16:00;;;;;;;;;74.00;55.00;;;;;8.53;82.42;102147.72;5074950;28;45360;-68
2023/04/09 01:18:41;;;;;;;;;69.25;53.75;;;;;8.47;82.27;102139.81;5075117;28;45418;-68
2023/04/09 01:21:13;;;;;;;;;70.00;52.33;;;;;8.52;82.41;102148.63;5077266;28;45349;-67
2023/04/09 01:24:09;;;;;;;;;74.50;54.25;;;;;8.52;82.13;102147.72;5078507;28;46994;-67
2023/04/09 01:26:47;;;;;;;;;71.33;54.67;;;;;8.51;81.91;102148.56;5078746;28;45436;-67
2023/04/09 01:29:16;;;;;;;;;73.33;54.00;;;;;8.47;82.16;102138.94;5078756;28;45460;-67
2023/04/09 01:31:43;;;;;;;;;70.00;52.75;;;;;8.36;82.24;102131.84;5078818;28;45410;-67
2023/04/09 01:34:10;;;;;;;;;68.50;51.50;;;;;8.23;82.69;102123.81;5078303;28;46699;-67
2023/04/09 01:36:39;;;;;;;;;79.00;56.50;;;;;7.99;82.61;102084.25;5078431;28;45270;-67
2023/04/09 01:39:05;;;;;;;;;71.33;55.00;;;;;8.15;82.52;102115.88;5078537;28;45659;-67
2023/04/09 01:41:33;;;;;;;;;72.00;54.00;;;;;8.27;82.67;102129.09;5078442;28;45276;-68
2023/04/09 01:44:00;;;;;;;;;74.67;54.33;;;;;8.28;82.61;102135.25;5077881;28;46187;-68
2023/04/09 01:46:26;;;;;;;;;76.50;56.50;;;;;8.18;82.04;102126.41;5079737;27;45491;-68
2023/04/09 01:48:53;;;;;;;;;77.25;56.50;;;;;8.17;82.69;102125.50;5101281;27;45409;-68
2023/04/09 01:51:19;;;;;;;;;74.67;56.00;;;;;8.24;82.63;102138.69;5101221;27;45367;-68
2023/04/09 01:53:44;;;;;;;;;72.00;56.25;;;;;8.18;82.12;102123.78;5100879;27;46238;-68
2023/04/09 01:56:10;;;;;;;;;69.67;51.67;;;;;8.22;81.98;102133.44;5100934;27;45438;-68
2023/04/09 01:58:35;;;;;;;;;72.75;52.25;;;;;8.16;81.66;102121.16;5101105;27;45418;-69
2023/04/09 02:01:08;;;;;;;;;68.00;51.33;;;;;8.19;80.52;102128.13;5101122;27;45502;-68
2023/04/09 02:03:44;;;;;;;;;69.33;53.00;;;;;7.99;81.00;102110.47;5100772;27;46367;-68
2023/04/09 02:06:50;;;;;;;;;70.00;55.00;;;;;8.02;81.15;102122.75;5100578;27;45545;-68
2023/04/09 02:09:18;;;;;;;;;72.00;55.00;;;;;8.02;81.53;102125.38;5077940;28;45419;-68
2023/04/09 02:11:46;;;;;;;;;73.33;55.67;;;;;7.98;82.14;102124.44;5078142;28;45424;-68
2023/04/09 02:14:12;;;;;;;;;73.67;51.00;;;;;7.98;82.07;102118.34;5077003;28;45476;-68
2023/04/09 02:16:39;;;;;;;;;75.33;52.33;;;;;8.01;82.67;102127.09;5077846;28;45379;-68
2023/04/09 02:19:04;;;;;;;;;78.75;56.00;;;;;8.04;82.93;102128.88;5078060;28;45566;-68
2023/04/09 02:21:31;;;;;;;;;78.00;56.50;;;;;8.09;83.35;102127.19;5078116;28;45358;-68
2023/04/09 02:23:56;;;;;;;;;74.00;57.33;;;;;8.02;83.41;102109.63;5077624;28;47150;-68
2023/04/09 02:26:22;;;;;;;;;73.50;55.50;;;;;8.14;83.54;102130.72;5077829;28;45407;-68
2023/04/09 02:28:48;;;;;;;;;71.00;52.00;;;;;8.06;83.66;102110.53;5077656;28;45329;-68
2023/04/09 02:31:13;;;;;;;;;77.00;56.33;;;;;8.06;84.38;102108.81;5077438;28;45428;-67
2023/04/09 02:33:39;;;;;;;;;77.67;55.00;;;;;8.16;84.12;102115.00;5077787;28;46268;-67
2023/04/09 02:36:05;;;;;;;;;72.50;51.25;;;;;8.19;84.51;102118.53;5077553;28;45424;-67
2023/04/09 02:38:30;;;;;;;;;76.33;55.00;;;;;8.19;84.93;102121.16;5077679;28;45298;-67
2023/04/09 02:40:55;;;;;;;;;80.75;56.25;;;;;8.12;85.23;102114.09;5077593;28;45463;-67
2023/04/09 02:43:21;;;;;;;;;74.25;54.00;;;;;8.18;85.85;102111.53;5077411;28;45591;-67
2023/04/09 02:45:46;;;;;;;;;72.75;54.00;;;;;8.22;86.05;102119.44;5086620;27;45367;-67
2023/04/09 02:48:11;;;;;;;;;79.00;56.75;;;;;8.26;86.27;102116.84;5100442;27;45989;-67
2023/04/09 02:50:37;;;;;;;;;81.75;56.50;;;;;8.23;86.34;102106.31;5100545;27;45449;-67
2023/04/09 02:53:02;;;;;;;;;73.75;55.75;;;;;8.19;86.76;102094.94;5099776;27;46306;-68
2023/04/09 02:55:28;;;;;;;;;75.33;54.33;;;;;8.29;87.01;102105.50;5100056;27;45367;-68
2023/04/09 02:57:53;;;;;;;;;74.00;54.00;;;;;8.24;87.22;102104.59;5100254;27;45433;-68
2023/04/09 03:00:18;;;;;;;;;78.33;57.33;;;;;8.29;86.29;102111.66;5100178;27;45247;-68
2023/04/09 03:02:44;;;;;;;;;76.00;57.00;;;;;8.23;86.13;102105.44;5100075;27;46494;-68
2023/04/09 03:05:09;;;;;;;;;75.50;56.75;;;;;8.21;86.56;102100.19;5099760;27;45314;-67
2023/04/09 03:07:34;;;;;;;;;74.75;55.50;;;;;8.25;86.87;102116.81;5099824;27;45354;-68
2023/04/09 03:10:00;;;;;;;;;79.00;58.25;;;;;8.14;86.25;102099.25;5100094;27;45347;-68
2023/04/09 03:12:25;;;;;;;;;76.00;54.00;;;;;8.22;86.23;102115.06;5099717;27;45933;-67
2023/04/09 03:14:50;;;;;;;;;75.75;55.50;;;;;8.21;86.97;102109.81;5098503;27;45455;-68
2023/04/09 03:17:16;;;;;;;;;75.25;55.50;;;;;8.15;87.50;102100.16;5099708;27;45318;-68
2023/04/09 03:19:41;;;;;;;;;75.00;56.00;;;;;8.17;85.78;102096.66;5100100;27;45527;-67
2023/04/09 03:22:06;;;;;;;;;69.75;52.50;;;;;8.07;86.28;102086.94;5099518;27;46189;-68
2023/04/09 03:24:32;;;;;;;;;71.50;52.50;;;;;8.08;87.52;102087.84;5099386;27;45240;-68
2023/04/09 03:26:58;;;;;;;;;76.00;53.33;;;;;8.12;87.85;102090.50;5099610;27;45150;-68
2023/04/09 03:29:23;;;;;;;;;73.50;55.50;;;;;8.16;86.40;102092.28;5099806;27;45155;-68
2023/04/09 03:31:48;;;;;;;;;75.00;57.50;;;;;8.03;87.83;102074.69;5099354;27;45221;-68
2023/04/09 03:34:14;;;;;;;;;81.50;57.75;;;;;8.15;88.22;102084.41;5099471;27;45299;-68
2023/04/09 03:36:39;;;;;;;;;71.25;52.50;;;;;8.08;87.44;102078.22;5099474;27;45320;-68
2023/04/09 03:39:05;;;;;;;;;78.00;55.75;;;;;8.06;88.20;102071.19;5099687;27;45246;-68
2023/04/09 03:41:30;;;;;;;;;79.75;57.75;;;;;8.17;87.05;102087.91;5099079;27;45250;-67
2023/04/09 03:43:55;;;;;;;;;71.67;54.00;;;;;8.06;87.10;102068.56;5098492;27;45406;-68
2023/04/09 03:46:21;;;;;;;;;76.75;58.25;;;;;8.00;87.08;102065.03;5099330;27;45579;-67
2023/04/09 03:48:46;;;;;;;;;71.75;55.00;;;;;8.06;87.81;102071.19;5099350;27;45433;-67
2023/04/09 03:51:15;;;;;;;;;74.33;55.00;;;;;8.02;86.94;102062.44;5099168;27;45467;-67
2023/04/09 03:53:41;;;;;;;;;76.00;56.75;;;;;8.06;88.22;102079.94;5098931;27;45425;-67
2023/04/09 03:56:07;;;;;;;;;78.50;53.75;;;;;8.04;87.55;102075.56;5101964;27;45818;-68
2023/04/09 03:58:33;;;;;;;;;81.75;58.75;;;;;8.06;88.24;102073.81;5109786;27;45558;-68
2023/04/09 04:00:58;;;;;;;;;73.33;53.33;;;;;8.08;88.25;102072.97;5098781;27;46042;-68
2023/04/09 04:03:24;;;;;;;;;70.33;51.00;;;;;8.05;87.76;102066.81;5099174;27;45281;-67
2023/04/09 04:05:49;;;;;;;;;74.25;57.25;;;;;7.99;87.36;102073.75;5098979;27;45837;-66
2023/04/09 04:08:15;;;;;;;;;72.50;54.00;;;;;8.04;88.52;102080.78;5099110;27;45461;-67
2023/04/09 04:10:40;;;;;;;;;74.33;53.00;;;;;8.09;88.74;102079.06;5098874;27;46353;-67
2023/04/09 04:13:09;;;;;;;;;73.00;54.25;;;;;7.85;89.24;102031.66;5098775;27;45299;-66
2023/04/09 04:15:41;;;;;;;;;72.67;57.33;;;;;8.04;89.44;102065.94;5099110;27;45414;-66
2023/04/09 04:18:06;;;;;;;;;73.00;55.67;;;;;8.14;89.66;102080.00;5098907;27;45625;-65
2023/04/09 04:20:32;;;;;;;;;77.75;57.50;;;;;8.12;89.48;102079.13;5098430;27;47283;-66
2023/04/09 04:22:58;;;;;;;;;81.50;61.25;;;;;8.08;87.66;102072.97;5098619;27;45574;-66
2023/04/09 04:25:23;;;;;;;;;74.25;56.50;;;;;7.81;89.17;102035.16;5098646;27;45298;-65
2023/04/09 04:27:48;;;;;;;;;69.33;51.67;;;;;8.02;87.02;102071.16;5099109;27;45290;-65
2023/04/09 04:30:14;;;;;;;;;71.00;53.00;;;;;8.01;89.57;102076.41;5098326;27;45448;-66
2023/04/09 04:32:39;;;;;;;;;76.00;58.00;;;;;8.06;90.42;102077.34;5098257;27;45292;-66
2023/04/09 04:35:05;;;;;;;;;78.75;56.75;;;;;8.04;90.23;102068.53;5098644;27;45513;-67
2023/04/09 04:37:30;;;;;;;;;75.00;56.25;;;;;8.06;90.25;102077.34;5098770;27;45322;-67
2023/04/09 04:39:55;;;;;;;;;80.00;59.00;;;;;8.04;89.40;102075.56;5098193;27;46406;-67
2023/04/09 04:42:22;;;;;;;;;72.67;54.67;;;;;7.98;89.41;102073.75;5098431;27;45333;-67
2023/04/09 04:44:47;;;;;;;;;74.67;54.67;;;;;7.92;89.91;102074.56;5098314;27;45453;-67
2023/04/09 04:47:12;;;;;;;;;73.00;53.00;;;;;7.95;90.90;102081.59;5098730;27;45407;-67
2023/04/09 04:49:37;;;;;;;;;70.33;54.00;;;;;8.03;91.22;102093.03;5098088;27;46034;-67
2023/04/09 04:52:03;;;;;;;;;77.50;53.75;;;;;8.06;90.54;102084.31;5098310;27;45404;-67
2023/04/09 04:54:28;;;;;;;;;73.33;53.33;;;;;8.10;90.74;102092.19;5098280;27;45470;-67
2023/04/09 04:56:55;;;;;;;;;81.50;56.50;;;;;8.07;89.47;102084.31;5098561;27;45422;-67
2023/04/09 04:59:20;;;;;;;;;74.00;55.75;;;;;8.06;89.78;102089.53;5098123;27;46495;-68
2023/04/09 05:01:45;;;;;;;;;84.00;63.25;;;;;8.04;89.71;102091.28;5097811;27;45484;-68
2023/04/09 05:04:11;;;;;;;;;76.75;56.75;;;;;7.99;90.39;102072.88;5098162;27;45287;-67
2023/04/09 05:06:36;;;;;;;;;76.50;55.75;;;;;8.04;89.48;102086.03;5098211;27;45537;-66
2023/04/09 05:09:01;;;;;;;;;75.00;55.00;;;;;7.76;89.23;102046.44;5097726;27;45478;-65
2023/04/09 05:11:27;;;;;;;;;76.50;55.25;;;;;7.95;90.15;102081.59;5098091;27;45382;-67
2023/04/09 05:13:52;;;;;;;;;73.75;54.50;;;;;7.96;90.00;102088.59;5097997;27;45333;-66
2023/04/09 05:16:19;;;;;;;;;77.50;57.50;;;;;7.97;90.66;102088.63;5098368;27;45417;-66
2023/04/09 05:18:45;;;;;;;;;77.00;57.75;;;;;7.98;90.94;102095.59;5097661;27;47351;-66
2023/04/09 05:21:11;;;;;;;;;75.75;56.75;;;;;7.99;90.94;102086.00;5113618;27;45311;-65
2023/04/09 05:23:36;;;;;;;;;78.75;56.50;;;;;8.04;89.74;102099.16;5097498;27;45334;-67
2023/04/09 05:26:01;;;;;;;;;72.75;55.50;;;;;7.99;89.85;102088.63;5098048;27;45332;-66
2023/04/09 05:28:27;;;;;;;;;76.00;56.75;;;;;8.03;90.00;102100.91;5097442;27;45846;-66
2023/04/09 05:30:52;;;;;;;;;76.25;56.00;;;;;8.01;89.12;102093.00;5097384;27;45212;-66
2023/04/09 05:33:17;;;;;;;;;70.00;54.25;;;;;7.84;88.14;102076.22;5097819;27;45232;-66
2023/04/09 05:35:43;;;;;;;;;75.75;58.00;;;;;7.80;89.80;102071.84;5098072;27;45356;-66
2023/04/09 05:38:08;;;;;;;;;80.25;56.00;;;;;7.95;90.47;102089.47;5097462;27;46268;-66
2023/04/09 05:40:34;;;;;;;;;81.50;58.75;;;;;8.01;90.17;102090.38;5097228;27;45363;-66
2023/04/09 05:43:00;;;;;;;;;62.25;52.00;;;;;8.07;90.39;102096.56;5097615;27;45456;-66
2023/04/09 05:45:27;;;;;;;;;73.00;53.33;;;;;8.05;88.81;102080.81;5097677;27;45280;-66
2023/04/09 05:47:52;;;;;;;;;73.00;54.50;;;;;8.11;90.27;102096.59;5097335;27;46282;-66
2023/04/09 05:50:18;;;;;;;;;75.50;56.75;;;;;8.15;90.21;102095.75;5097130;27;45343;-66
2023/04/09 05:52:43;;;;;;;;;75.25;58.50;;;;;8.14;89.16;102090.50;5097624;27;45324;-65
2023/04/09 05:55:09;;;;;;;;;74.00;55.67;;;;;8.22;89.04;102109.84;5097474;27;45295;-66
2023/04/09 05:57:34;;;;;;;;;70.00;53.33;;;;;8.20;87.88;102108.91;5096953;27;46114;-66
2023/04/09 06:00:00;;;;;;;;;81.00;58.33;;;;;8.17;88.94;102093.16;5096794;27;45395;-66
2023/04/09 06:02:25;;;;;;;;;81.25;56.50;;;;;7.93;88.96;102047.47;5097193;27;45370;-66
2023/04/09 06:04:50;;;;;;;;;77.75;58.50;;;;;8.33;88.39;102100.28;5097630;27;45355;-66
2023/04/09 06:07:16;;;;;;;;;80.50;57.25;;;;;8.40;87.36;102111.72;5099158;27;46635;-66
2023/04/09 06:09:45;;;;;;;;;80.75;59.25;;;;;8.33;86.80;102094.16;5100603;27;45593;-66
2023/04/09 06:12:12;;;;;;;;;71.00;53.33;;;;;8.33;86.24;102099.41;5100732;27;45758;-66
2023/04/09 06:14:37;;;;;;;;;76.50;57.25;;;;;8.22;86.64;102101.97;5100489;27;45386;-67
2023/04/09 06:17:02;;;;;;;;;82.75;58.25;;;;;8.18;87.19;102093.16;5100309;27;46122;-66
2023/04/09 06:19:27;;;;;;;;;80.00;59.50;;;;;7.90;88.59;102039.59;5100436;27;45307;-67
2023/04/09 06:21:53;;;;;;;;;75.50;56.25;;;;;8.23;86.74;102092.34;5100673;27;45336;-67
2023/04/09 06:24:18;;;;;;;;;76.75;58.50;;;;;8.30;87.26;102104.63;5100605;27;45386;-67
2023/04/09 06:26:43;;;;;;;;;80.00;58.75;;;;;8.29;87.04;102100.25;5100063;27;47270;-66
2023/04/09 06:29:09;;;;;;;;;75.25;57.00;;;;;8.32;86.75;102102.91;5100568;27;45338;-67
2023/04/09 06:31:34;;;;;;;;;79.33;58.33;;;;;8.28;86.12;102104.63;5100426;27;45295;-67
2023/04/09 06:33:59;;;;;;;;;80.75;58.75;;;;;8.25;86.48;102104.59;5100623;27;45355;-67
2023/04/09 06:36:26;;;;;;;;;78.00;58.75;;;;;8.25;87.70;102096.75;5100289;27;46977;-67
2023/04/09 06:38:51;;;;;;;;;79.25;59.25;;;;;8.50;87.00;102118.84;5099602;27;45323;-66
2023/04/09 06:41:20;;;;;;;;;74.00;54.50;;;;;8.62;86.37;102106.69;5100273;27;45267;-66
2023/04/09 06:43:45;;;;;;;;;77.75;59.00;;;;;8.73;84.46;102117.25;5100386;27;45418;-66
2023/04/09 06:46:10;;;;;;;;;77.00;57.25;;;;;8.75;86.39;102111.13;5099931;27;46282;-66
2023/04/09 06:48:36;;;;;;;;;81.00;60.00;;;;;8.80;85.41;102098.03;5100268;27;45362;-66
2023/04/09 06:51:01;;;;;;;;;85.50;63.25;;;;;8.98;84.07;102106.03;5100230;27;45367;-66
2023/04/09 06:53:26;;;;;;;;;71.00;56.50;;;;;9.05;82.68;102099.06;5100606;27;45400;-65
2023/04/09 06:55:52;;;;;;;;;75.50;58.25;;;;;8.79;82.01;102064.78;5099880;27;46131;-65
2023/04/09 06:58:17;;;;;;;;;75.75;58.75;;;;;9.18;82.10;102110.53;5099952;27;45481;-65
2023/04/09 07:00:42;;;;;;;;;73.50;53.75;;;;;9.32;81.08;102108.81;5100076;27;45290;-66
2023/04/09 07:03:08;;;;;;;;;69.50;54.00;;;;;9.38;80.85;102113.22;5100181;27;45389;-65
2023/04/09 07:05:34;;;;;;;;;77.25;57.25;;;;;9.41;79.71;102106.25;5098716;27;46386;-65
2023/04/09 07:08:00;;;;;;;;;72.75;55.00;;;;;9.53;80.12;102107.19;5099712;27;45354;-65
2023/04/09 07:10:25;;;;;;;;;76.00;57.25;;;;;10.07;79.33;102105.53;5099684;27;45300;-66
2023/04/09 07:12:50;;;;;;;;;73.75;56.75;;;;;10.54;76.62;102108.22;5100332;27;45343;-66
2023/04/09 07:15:16;;;;;;;;;72.25;54.00;;;;;11.06;75.25;102108.13;5099786;27;45500;-65
2023/04/09 07:17:41;;;;;;;;;68.75;52.25;;;;;11.38;71.62;102106.28;5098190;27;45355;-66
2023/04/09 07:20:07;;;;;;;;;67.50;53.75;;;;;11.56;70.43;102100.03;5111290;27;45410;-66
2023/04/09 07:22:32;;;;;;;;;66.33;52.00;;;;;12.13;68.53;102105.88;5120165;27;45532;-66
2023/04/09 07:24:57;;;;;;;;;66.25;51.75;;;;;12.88;68.06;102101.69;5119641;27;46462;-66
2023/04/09 07:27:25;;;;;;;;;65.00;51.00;;;;;13.02;67.88;102105.94;5119962;27;45428;-67
2023/04/09 07:29:53;;;;;;;;;67.25;53.00;;;;;13.67;64.53;102102.53;5120301;27;45333;-65
2023/04/09 07:32:18;;;;;;;;;68.67;53.67;;;;;14.06;61.25;102105.50;5119750;27;45515;-67
2023/04/09 07:34:44;;;;;;;;;66.00;49.50;;;;;14.38;60.55;102099.69;5119583;27;46426;-67
2023/04/09 07:37:10;;;;;;;;;64.67;51.00;;;;;15.39;60.33;102106.63;5119556;27;45390;-69
2023/04/09 07:39:35;;;;;;;;;62.67;50.00;;;;;15.11;57.91;102098.38;5119786;27;45457;-66
2023/04/09 07:42:04;;;;;;;;;64.00;49.67;;;;;14.66;59.11;102112.47;5119856;27;45203;-66
2023/04/09 07:44:35;;;;;;;;;60.33;47.00;;;;;14.14;60.83;102106.25;5119462;27;47262;-66
2023/04/09 07:47:01;;;;;;;;;64.00;50.00;;;;;13.70;61.20;102110.44;5119193;27;45526;-65
2023/04/09 07:49:26;;;;;;;;;58.67;46.00;;;;;13.53;62.23;102103.56;5118749;27;45414;-65
2023/04/09 07:51:51;;;;;;;;;62.00;48.33;;;;;13.57;63.07;102112.38;5119966;27;45276;-65
2023/04/09 07:54:17;;;;;;;;;63.25;47.75;;;;;13.37;63.46;102094.09;5119298;27;46288;-65
2023/04/09 07:56:43;;;;;;;;;65.50;50.00;;;;;13.38;62.61;102102.03;5118775;27;45445;-65
2023/04/09 07:59:09;;;;;;;;;60.00;47.67;;;;;13.20;64.51;102100.44;5118918;27;45785;-65
2023/04/09 08:01:35;;;;;;;;;64.67;51.00;;;;;13.10;62.80;102090.88;5120020;27;45439;-65
2023/04/09 08:04:01;;;;;;;;;64.33;49.33;;;;;13.05;64.71;102108.56;5119156;27;46401;-65
2023/04/09 08:06:26;;;;;;;;;63.67;49.33;;;;;12.90;63.71;102096.38;5119304;27;45318;-65
2023/04/09 08:08:52;;;;;;;;;62.00;48.00;;;;;12.87;64.34;102099.94;5119526;27;45394;-65
2023/04/09 08:11:23;;;;;;;;;60.00;48.00;;;;;13.00;65.29;102100.69;5119286;27;45471;-65
2023/04/09 08:13:50;;;;;;;;;63.00;49.00;;;;;13.47;63.12;102095.72;5119324;27;47486;-65
2023/04/09 08:16:15;;;;;;;;;59.33;45.00;;;;;13.99;62.55;102093.25;5118671;27;45421;-65
2023/04/09 08:18:40;;;;;;;;;61.00;47.33;;;;;14.91;61.67;102094.31;5119240;27;45253;-65
2023/04/09 08:21:06;;;;;;;;;64.33;51.00;;;;;15.80;56.60;102093.38;5119659;27;45201;-66
2023/04/09 08:23:31;;;;;;;;;56.00;45.33;;;;;15.92;57.17;102065.69;5119063;27;46095;-66
2023/04/09 08:25:56;;;;;;;;;61.00;48.00;;;;;16.26;54.82;102099.41;5118582;27;45421;-66
2023/04/09 08:28:22;;;;;;;;;64.67;48.00;;;;;16.52;54.79;102094.28;5119218;27;45289;-66
2023/04/09 08:30:47;;;;;;;;;67.67;50.67;;;;;17.03;53.47;102100.94;5119258;27;45337;-65
2023/04/09 08:33:13;;;;;;;;;63.67;49.67;;;;;17.26;53.91;102110.06;5118372;27;45973;-65
2023/04/09 08:35:40;;;;;;;;;62.00;48.67;;;;;17.40;52.88;102102.53;5118895;27;45356;-66
2023/04/09 08:38:05;;;;;;;;;65.33;51.67;;;;;18.16;49.94;102105.53;5119109;27;45370;-66
2023/04/09 08:40:34;;;;;;;;;62.33;49.00;;;;;18.20;51.83;102106.34;5118829;27;45360;-66
2023/04/09 08:43:06;;;;;;;;;66.33;52.33;;;;;17.51;50.27;102107.53;5118592;27;47038;-66
2023/04/09 08:45:32;;;;;;;;;55.67;47.00;;;;;17.44;53.30;102110.44;5118777;27;45289;-66
2023/04/09 08:47:58;;;;;;;;;69.33;50.67;;;;;17.59;50.10;102094.00;5118970;27;45323;-65
2023/04/09 08:50:26;;;;;;;;;58.33;47.33;;;;;17.59;50.28;102099.31;5119032;27;45449;-65
2023/04/09 08:52:53;;;;;;;;;62.00;47.33;;;;;18.11;50.05;102099.50;5118484;27;45528;-65
2023/04/09 08:55:19;;;;;;;;;57.00;44.00;;;;;20.34;48.64;102106.38;5118723;27;45445;-65
2023/04/09 08:57:44;;;;;;;;;57.33;45.00;;;;;21.85;42.93;102089.84;5118853;27;45787;-65
2023/04/09 09:00:10;;;;;;;;;60.33;46.33;;;;;21.96;41.92;102097.34;5118827;27;45427;-65
2023/04/09 09:02:35;;;;;;;;;56.00;46.33;;;;;21.27;44.52;102088.09;5118366;27;45484;-65
2023/04/09 09:05:01;;;;;;;;;59.33;46.33;;;;;22.00;41.79;102094.47;5118430;27;45335;-65
2023/04/09 09:07:28;;;;;;;;;58.67;46.00;;;;;22.76;39.60;102082.59;5118678;27;45465;-65
2023/04/09 09:09:58;;;;;;;;;54.67;43.67;;;;;22.83;43.61;102091.16;5117436;27;45453;-64
2023/04/09 09:12:40;;;;;;;;;53.00;42.00;;;;;22.24;40.79;102094.16;5117725;27;46445;-65
2023/04/09 09:15:27;;;;;;;;;55.00;43.33;;;;;21.62;42.14;102089.13;5118191;27;45476;-65
2023/04/09 09:17:55;;;;;;;;;54.33;45.00;;;;;21.58;42.18;102081.31;5118568;27;45330;-65
2023/04/09 09:20:21;;;;;;;;;56.67;43.67;;;;;21.14;40.40;102077.06;5118662;27;45310;-65
2023/04/09 09:22:52;;;;;;;;;49.33;41.00;;;;;21.04;44.67;102084.66;5118459;27;46370;-65
2023/04/09 09:25:22;;;;;;;;;55.00;45.00;;;;;20.86;43.52;102072.97;5117899;27;45345;-65
2023/04/09 09:27:48;;;;;;;;;56.00;44.33;;;;;21.05;43.20;102089.94;5118335;27;45383;-65
2023/04/09 09:30:24;;;;;;;;;62.00;48.67;;;;;20.72;42.87;102088.78;5118772;27;45339;-65
2023/04/09 09:33:03;;;;;;;;;58.33;45.67;;;;;20.69;43.71;102082.63;5118089;27;46562;-65
2023/04/09 09:35:28;;;;;;;;;51.67;40.33;;;;;21.17;43.84;102079.59;5118254;27;45409;-65
2023/04/09 09:38:02;;;;;;;;;55.00;46.00;;;;;21.39;43.43;102068.75;5118373;27;45325;-65
2023/04/09 09:40:28;;;;;;;;;63.33;43.67;;;;;22.14;40.99;102077.66;5118104;27;45475;-66
2023/04/09 09:42:57;;;;;;;;;62.33;47.00;;;;;23.91;38.47;102061.06;5120968;27;45891;-65
2023/04/09 09:45:24;;;;;;;;;59.25;47.25;;;;;25.80;37.04;102055.69;5121658;27;45446;-65
2023/04/09 09:47:50;;;;;;;;;52.33;40.33;;;;;27.23;38.25;102056.63;5121915;27;45281;-65
2023/04/09 09:50:15;;;;;;;;;59.50;46.50;;;;;28.57;33.15;102045.69;5121929;27;45234;-65
2023/04/09 09:52:44;;;;;;;;;55.50;45.75;;;;;29.62;30.82;102058.97;5121512;27;46546;-65
2023/04/09 09:55:14;;;;;;;;;52.00;39.33;;;;;30.33;28.71;102052.16;5121599;27;45418;-65
2023/04/09 09:57:42;;;;;;;;;47.67;37.33;;;;;31.27;30.54;102048.50;5121481;27;45317;-65
2023/04/09 10:00:11;;;;;;;;;46.33;37.33;;;;;31.98;31.09;102044.72;5121844;27;45492;-65
2023/04/09 10:02:47;;;;;;;;;52.00;41.00;;;;;32.37;27.72;102058.34;5121200;27;45395;-65
2023/04/09 10:05:13;;;;;;;;;51.75;41.50;;;;;32.90;25.82;102051.47;5121368;27;45299;-66
2023/04/09 10:07:39;;;;;;;;;51.25;41.25;;;;;33.27;25.99;102050.56;5121697;27;45700;-66
2023/04/09 10:10:08;;;;;;;;;47.25;37.50;;;;;33.79;29.28;102049.94;5121594;27;45400;-66
2023/04/09 10:12:33;;;;;;;;;54.00;42.25;;;;;33.78;24.11;102038.19;5121184;27;46496;-66
2023/04/09 10:15:03;;;;;;;;;47.00;38.25;;;;;33.88;25.37;102040.81;5121320;27;45472;-66
2023/04/09 10:17:30;;;;;;;;;48.25;39.25;;;;;33.99;23.74;102023.31;5121494;27;45228;-66
2023/04/09 10:20:04;;;;;;;;;49.00;39.50;;;;;34.31;23.01;102030.91;5121520;27;45220;-65
2023/04/09 10:22:32;;;;;;;;;44.00;36.25;;;;;34.18;23.81;102025.00;5121067;27;46468;-66
2023/04/09 10:24:58;;;;;;;;;45.25;38.50;;;;;34.07;22.68;102017.91;5121062;27;45460;-66
2023/04/09 10:27:26;;;;;;;;;35.25;32.75;;;;;34.26;25.24;102025.06;5120956;27;45299;-66
2023/04/09 10:29:52;;;;;;;;;41.50;33.50;;;;;34.11;24.92;102023.91;5121625;27;45294;-66
2023/04/09 10:32:22;;;;;;;;;45.00;37.75;;;;;34.02;22.59;102012.06;5121250;27;45281;-65
2023/04/09 10:34:49;;;;;;;;;36.00;30.00;;;;;33.66;23.46;102023.00;5121125;27;45289;-65
2023/04/09 10:37:20;;;;;;;;;44.00;36.50;;;;;32.97;22.63;102012.50;5121034;27;45361;-65
2023/04/09 10:39:47;;;;;;;;;39.75;33.75;;;;;32.33;23.13;101994.19;5121183;27;45398;-66
2023/04/09 10:42:16;;;;;;;;;39.75;34.25;;;;;32.13;23.25;102013.34;5120443;27;46402;-66
2023/04/09 10:44:42;;;;;;;;;35.67;32.00;;;;;31.59;24.69;101999.31;5120666;27;45489;-66
2023/04/09 10:47:08;;;;;;;;;37.67;34.67;;;;;30.80;23.34;102000.91;5120932;27;45364;-66
2023/04/09 10:49:36;;;;;;;;;29.33;29.00;;;;;30.14;25.35;101996.69;5121212;27;45552;-66
2023/04/09 10:52:06;;;;;;;;;35.67;31.67;;;;;29.34;27.04;102006.16;5120513;27;47199;-66
2023/04/09 10:54:34;;;;;;;;;37.00;33.00;;;;;28.07;27.83;101999.03;5120616;27;45334;-66
2023/04/09 10:57:06;;;;;;;;;45.67;33.67;;;;;27.05;27.58;101998.47;5120679;27;45428;-66
2023/04/09 10:59:41;;;;;;;;;44.00;36.33;;;;;26.20;28.83;101989.13;5120880;27;45342;-66
2023/04/09 11:02:08;;;;;;;;;47.00;38.00;;;;;25.54;29.56;101989.00;5120404;27;46645;-66
2023/04/09 11:04:50;;;;;;;;;43.67;35.67;;;;;25.19;30.92;101994.00;5120478;27;45219;-66
2023/04/09 11:07:18;;;;;;;;;44.33;32.67;;;;;24.56;31.75;101989.88;5120654;27;45334;-66
2023/04/09 11:09:44;;;;;;;;;41.67;35.00;;;;;24.23;32.31;101988.31;5120730;27;45189;-66
2023/04/09 11:12:10;;;;;;;;;38.67;33.33;;;;;23.69;32.45;101975.38;5120383;27;46084;-66
2023/04/09 11:14:35;;;;;;;;;48.00;36.00;;;;;23.11;33.37;101992.03;5120435;27;45403;-66